Time;durP1;ratioP1;P1;durP2;ratioP2;P2;SDS_P1;SDS_P2;PMS_P1;PMS_P2;Temp;Humidity;BMP_temperature;BMP_pressure;BME280_temperature;BME280_humidity;BME280_pressure;Samples;Min_cycle;Max_cycle;Signal;HPM_P1;HPM_P2
2021/11/01 00:00:07;;;;;;;;;;;;;;;;;;348481;28;1322;-80
2021/11/01 00:00:53;;;;;;;;;;;;;;;;;;348475;28;1349;-81
2021/11/01 00:01:22;;;;;;;;;;;;;;;;;;349912;28;1212;-81
2021/11/01 00:01:38;;;;;;;;;;;;;;;;;;348561;28;1055;-81
2021/11/01 00:02:15;;;;;;;;;;;;;;;;;;348550;28;853;-81
2021/11/01 00:02:25;;;;;;;;;;;;;;;;;;348595;28;960;-82
2021/11/01 00:03:28;;;;;;;;;;;;;;;;;;350019;28;798;-81
2021/11/01 00:03:39;;;;;;;;;;;;;;;;;;349684;28;889;-82
2021/11/01 00:04:04;;;;;;;;;;;;;;;;;;347311;28;968;-80
2021/11/01 00:04:15;;;;;;;;;;;;;;;;;;348421;28;1457;-81
2021/11/01 00:04:51;;;;;;;;;;;;;;;;;;347177;28;945;-82
2021/11/01 00:05:02;;;;;;;;;;;;;;;;;;347226;28;814;-80
2021/11/01 00:05:13;;;;;;;;;;;;;;;;;;347214;28;945;-81
2021/11/01 00:05:25;;;;;;;;;;;;;;;;;;347085;28;977;-81
2021/11/01 00:05:35;;;;;;;;;;;;;;;;;;347119;28;981;-80
2021/11/01 00:05:46;;;;;;;;;;;;;;;;;;347843;28;889;-81
2021/11/01 00:05:57;;;;;;;;;;;;;;;;;;348582;28;981;-82
2021/11/01 00:06:08;;;;;;;;;;;;;;;;;;348456;28;814;-82
2021/11/01 00:06:40;;;;;;;;;;;;;;;;;;346092;28;957;-81
2021/11/01 00:06:50;;;;;;;;;;;;;;;;;;348605;28;992;-81
2021/11/01 00:07:01;;;;;;;;;;;;;;;;;;347122;28;1266;-80
2021/11/01 00:07:21;;;;;;;;;;;;;;;;;;347119;28;1243;-82
2021/11/01 00:07:32;;;;;;;;;;;;;;;;;;346954;28;1292;-81
2021/11/01 00:07:42;;;;;;;;;;;;;;;;;;347210;28;977;-81
2021/11/01 00:07:56;;;;;;;;;;;;;;;;;;347212;28;984;-80
2021/11/01 00:08:12;;;;;;;;;;;;;;;;;;347263;28;814;-80
2021/11/01 00:08:22;;;;;;;;;;;;;;;;;;347152;28;846;-79
2021/11/01 00:08:34;;;;;;;;;;;;;;;;;;347163;28;984;-81
2021/11/01 00:08:45;;;;;;;;;;;;;;;;;;346906;28;877;-83
2021/11/01 00:08:56;;;;;;;;;;;;;;;;;;347615;28;1150;-82
2021/11/01 00:09:23;;;;;;;;;;;;;;;;;;349125;28;961;-82
2021/11/01 00:09:33;;;;;;;;;;;;;;;;;;351294;28;822;-83
2021/11/01 00:09:44;;;;;;;;;;;;;;;;;;349740;28;1661;-82
2021/11/01 00:09:55;;;;;;;;;;;;;;;;;;349994;28;857;-81
2021/11/01 00:10:12;;;;;;;;;;;;;;;;;;349965;28;941;-81
2021/11/01 00:10:28;;;;;;;;;;;;;;;;;;349725;28;1159;-81
2021/11/01 00:10:59;;;;;;;;;;;;;;;;;;349895;28;822;-80
2021/11/01 00:11:10;;;;;;;;;;;;;;;;;;348575;28;823;-81
2021/11/01 00:11:20;;;;;;;;;;;;;;;;;;347107;28;1249;-82
2021/11/01 00:11:52;;;;;;;;;;;;;;;;;;347226;28;870;-80
2021/11/01 00:12:03;;;;;;;;;;;;;;;;;;345729;28;1243;-81
2021/11/01 00:12:14;;;;;;;;;;;;;;;;;;345827;28;830;-81
2021/11/01 00:12:29;;;;;;;;;;;;;;;;;;346362;28;921;-81
2021/11/01 00:12:40;;;;;;;;;;;;;;;;;;345705;28;1285;-81
2021/11/01 00:12:50;;;;;;;;;;;;;;;;;;345782;28;881;-80
2021/11/01 00:13:01;;;;;;;;;;;;;;;;;;345755;28;1040;-81
2021/11/01 00:13:11;;;;;;;;;;;;;;;;;;345436;28;1065;-80
2021/11/01 00:13:38;;;;;;;;;;;;;;;;;;345705;28;1211;-81
2021/11/01 00:13:49;;;;;;;;;;;;;;;;;;347125;28;1037;-81
2021/11/01 00:13:59;;;;;;;;;;;;;;;;;;347096;28;905;-81
2021/11/01 00:14:16;;;;;;;;;;;;;;;;;;347126;28;898;-80
2021/11/01 00:14:32;;;;;;;;;;;;;;;;;;347253;28;1016;-81
2021/11/01 00:14:42;;;;;;;;;;;;;;;;;;346872;28;1388;-80
2021/11/01 00:14:53;;;;;;;;;;;;;;;;;;347155;28;969;-82
2021/11/01 00:15:04;;;;;;;;;;;;;;;;;;347125;28;1000;-81
2021/11/01 00:15:41;;;;;;;;;;;;;;;;;;345566;28;1175;-82
2021/11/01 00:15:52;;;;;;;;;;;;;;;;;;345800;28;858;-80
2021/11/01 00:16:03;;;;;;;;;;;;;;;;;;345729;28;1036;-80
2021/11/01 00:16:13;;;;;;;;;;;;;;;;;;345762;28;982;-81
2021/11/01 00:16:24;;;;;;;;;;;;;;;;;;345809;28;1008;-82
2021/11/01 00:16:35;;;;;;;;;;;;;;;;;;345796;28;1028;-81
2021/11/01 00:16:45;;;;;;;;;;;;;;;;;;345782;28;1012;-81
2021/11/01 00:16:57;;;;;;;;;;;;;;;;;;345681;28;1012;-80
2021/11/01 00:17:08;;;;;;;;;;;;;;;;;;346452;28;933;-80
2021/11/01 00:17:51;;;;;;;;;;;;;;;;;;349905;28;838;-79
2021/11/01 00:18:01;;;;;;;;;;;;;;;;;;349847;28;1104;-81
2021/11/01 00:18:12;;;;;;;;;;;;;;;;;;349924;28;803;-81
2021/11/01 00:18:28;;;;;;;;;;;;;;;;;;349905;28;1020;-81
2021/11/01 00:18:45;;;;;;;;;;;;;;;;;;349944;28;857;-80
2021/11/01 00:19:04;;;;;;;;;;;;;;;;;;348421;28;1180;-82
2021/11/01 00:19:28;;;;;;;;;;;;;;;;;;348447;28;846;-79
2021/11/01 00:19:38;;;;;;;;;;;;;;;;;;348509;28;814;-80
2021/11/01 00:19:48;;;;;;;;;;;;;;;;;;348455;28;846;-81
2021/11/01 00:19:59;;;;;;;;;;;;;;;;;;348497;28;953;-83
2021/11/01 00:20:10;;;;;;;;;;;;;;;;;;347091;28;1188;-82
2021/11/01 00:20:22;;;;;;;;;;;;;;;;;;345621;28;1238;-81
2021/11/01 00:20:33;;;;;;;;;;;;;;;;;;344216;28;1305;-80
2021/11/01 00:20:43;;;;;;;;;;;;;;;;;;345662;28;977;-81
2021/11/01 00:20:59;;;;;;;;;;;;;;;;;;345806;28;1051;-79
2021/11/01 00:21:25;;;;;;;;;;;;;;;;;;345779;28;969;-79
2021/11/01 00:21:35;;;;;;;;;;;;;;;;;;345719;28;1055;-82
2021/11/01 00:22:27;;;;;;;;;;;;;;;;;;346534;28;815;-81
2021/11/01 00:22:43;;;;;;;;;;;;;;;;;;348536;28;881;-81
2021/11/01 00:22:53;;;;;;;;;;;;;;;;;;348507;28;877;-81
2021/11/01 00:23:56;;;;;;;;;;;;;;;;;;348520;28;811;-81
2021/11/01 00:24:28;;;;;;;;;;;;;;;;;;347149;28;830;-80
2021/11/01 00:24:43;;;;;;;;;;;;;;;;;;345556;28;1207;-81
2021/11/01 00:24:54;;;;;;;;;;;;;;;;;;345523;28;1031;-81
2021/11/01 00:25:31;;;;;;;;;;;;;;;;;;346921;28;1032;-80
2021/11/01 00:25:42;;;;;;;;;;;;;;;;;;346951;28;913;-79
2021/11/01 00:25:52;;;;;;;;;;;;;;;;;;345645;28;815;-79
2021/11/01 00:26:02;;;;;;;;;;;;;;;;;;346442;28;866;-81
2021/11/01 00:26:13;;;;;;;;;;;;;;;;;;345689;28;1177;-79
2021/11/01 00:26:29;;;;;;;;;;;;;;;;;;345802;28;973;-81
2021/11/01 00:26:40;;;;;;;;;;;;;;;;;;346474;28;976;-80
2021/11/01 00:26:51;;;;;;;;;;;;;;;;;;347112;28;980;-80
2021/11/01 00:27:01;;;;;;;;;;;;;;;;;;347062;28;1007;-80
2021/11/01 00:27:12;;;;;;;;;;;;;;;;;;345766;28;992;-81
2021/11/01 00:27:28;;;;;;;;;;;;;;;;;;344426;28;968;-80
2021/11/01 00:27:44;;;;;;;;;;;;;;;;;;344597;28;873;-81
2021/11/01 00:27:55;;;;;;;;;;;;;;;;;;347135;28;884;-80
2021/11/01 00:28:06;;;;;;;;;;;;;;;;;;347290;28;1024;-81
2021/11/01 00:28:44;;;;;;;;;;;;;;;;;;347168;28;794;-78
2021/11/01 00:28:54;;;;;;;;;;;;;;;;;;347172;28;815;-80
2021/11/01 00:29:06;;;;;;;;;;;;;;;;;;346059;28;949;-82
2021/11/01 00:29:16;;;;;;;;;;;;;;;;;;347140;28;977;-81
2021/11/01 00:29:26;;;;;;;;;;;;;;;;;;347183;28;798;-78
2021/11/01 00:29:37;;;;;;;;;;;;;;;;;;345824;28;807;-82
2021/11/01 00:29:47;;;;;;;;;;;;;;;;;;344283;28;1415;-81
2021/11/01 00:29:58;;;;;;;;;;;;;;;;;;344321;28;1156;-80
2021/11/01 00:30:09;;;;;;;;;;;;;;;;;;344413;28;807;-81
2021/11/01 00:30:46;;;;;;;;;;;;;;;;;;345630;28;941;-80
2021/11/01 00:31:12;;;;;;;;;;;;;;;;;;345669;28;1201;-79
2021/11/01 00:31:22;;;;;;;;;;;;;;;;;;345703;28;986;-80
2021/11/01 00:31:34;;;;;;;;;;;;;;;;;;346402;28;921;-83
2021/11/01 00:32:10;;;;;;;;;;;;;;;;;;348491;28;957;-79
2021/11/01 00:32:29;;;;;;;;;;;;;;;;;;349762;28;786;-80
2021/11/01 00:33:12;;;;;;;;;;;;;;;;;;349859;28;798;-81
2021/11/01 00:33:29;;;;;;;;;;;;;;;;;;349862;28;838;-80
2021/11/01 00:33:46;;;;;;;;;;;;;;;;;;349915;28;912;-82
2021/11/01 00:33:56;;;;;;;;;;;;;;;;;;349839;28;1444;-81
2021/11/01 00:34:07;;;;;;;;;;;;;;;;;;349878;28;928;-80
2021/11/01 00:34:17;;;;;;;;;;;;;;;;;;349902;28;932;-80
2021/11/01 00:34:34;;;;;;;;;;;;;;;;;;348512;28;933;-81
2021/11/01 00:34:45;;;;;;;;;;;;;;;;;;346922;28;1507;-78
2021/11/01 00:34:58;;;;;;;;;;;;;;;;;;347129;28;981;-81
2021/11/01 00:35:09;;;;;;;;;;;;;;;;;;344415;28;1585;-80
2021/11/01 00:35:20;;;;;;;;;;;;;;;;;;345506;28;1265;-81
2021/11/01 00:35:30;;;;;;;;;;;;;;;;;;345544;28;1594;-80
2021/11/01 00:35:41;;;;;;;;;;;;;;;;;;345632;28;831;-80
2021/11/01 00:35:51;;;;;;;;;;;;;;;;;;345630;28;802;-78
2021/11/01 00:36:02;;;;;;;;;;;;;;;;;;345734;28;945;-80
2021/11/01 00:36:13;;;;;;;;;;;;;;;;;;345815;28;893;-81
2021/11/01 00:36:23;;;;;;;;;;;;;;;;;;345757;28;811;-81
2021/11/01 00:36:34;;;;;;;;;;;;;;;;;;345836;28;795;-83
2021/11/01 00:36:44;;;;;;;;;;;;;;;;;;345712;28;779;-81
2021/11/01 00:36:54;;;;;;;;;;;;;;;;;;344306;28;1213;-81
2021/11/01 00:37:05;;;;;;;;;;;;;;;;;;345749;28;794;-82
2021/11/01 00:37:44;;;;;;;;;;;;;;;;;;346713;28;811;-80
2021/11/01 00:38:00;;;;;;;;;;;;;;;;;;346952;28;1040;-81
2021/11/01 00:38:10;;;;;;;;;;;;;;;;;;346941;28;1296;-81
2021/11/01 00:38:21;;;;;;;;;;;;;;;;;;345713;28;1555;-82
2021/11/01 00:38:31;;;;;;;;;;;;;;;;;;345549;28;1007;-81
2021/11/01 00:38:42;;;;;;;;;;;;;;;;;;345758;28;1000;-79
2021/11/01 00:38:53;;;;;;;;;;;;;;;;;;346502;28;1412;-82
2021/11/01 00:39:03;;;;;;;;;;;;;;;;;;346995;28;937;-81
2021/11/01 00:39:14;;;;;;;;;;;;;;;;;;345691;28;1212;-80
2021/11/01 00:40:05;;;;;;;;;;;;;;;;;;345630;28;1005;-80
2021/11/01 00:40:16;;;;;;;;;;;;;;;;;;347597;28;807;-80
2021/11/01 00:40:26;;;;;;;;;;;;;;;;;;348530;28;917;-81
2021/11/01 00:40:38;;;;;;;;;;;;;;;;;;348471;28;1020;-80
2021/11/01 00:40:49;;;;;;;;;;;;;;;;;;346921;28;1643;-80
2021/11/01 00:41:00;;;;;;;;;;;;;;;;;;344094;28;1216;-80
2021/11/01 00:41:10;;;;;;;;;;;;;;;;;;345104;28;946;-81
2021/11/01 00:41:21;;;;;;;;;;;;;;;;;;344209;28;1221;-81
2021/11/01 00:41:31;;;;;;;;;;;;;;;;;;344383;28;985;-81
2021/11/01 00:41:41;;;;;;;;;;;;;;;;;;345432;28;987;-82
2021/11/01 00:41:52;;;;;;;;;;;;;;;;;;345759;28;981;-83
2021/11/01 00:42:03;;;;;;;;;;;;;;;;;;347007;28;1183;-82
2021/11/01 00:42:13;;;;;;;;;;;;;;;;;;348344;28;1227;-81
2021/11/01 00:42:24;;;;;;;;;;;;;;;;;;348519;28;969;-82
2021/11/01 00:43:03;;;;;;;;;;;;;;;;;;348478;28;1012;-81
2021/11/01 00:43:13;;;;;;;;;;;;;;;;;;348424;28;980;-79
2021/11/01 00:43:24;;;;;;;;;;;;;;;;;;348412;28;1200;-82
2021/11/01 00:43:34;;;;;;;;;;;;;;;;;;348302;28;842;-82
2021/11/01 00:43:45;;;;;;;;;;;;;;;;;;348208;28;1471;-81
2021/11/01 00:43:56;;;;;;;;;;;;;;;;;;348366;28;1362;-82
2021/11/01 00:44:06;;;;;;;;;;;;;;;;;;348552;28;953;-82
2021/11/01 00:44:32;;;;;;;;;;;;;;;;;;347150;28;898;-81
2021/11/01 00:44:43;;;;;;;;;;;;;;;;;;349721;28;1379;-81
2021/11/01 00:44:53;;;;;;;;;;;;;;;;;;349826;28;810;-80
2021/11/01 00:45:04;;;;;;;;;;;;;;;;;;345782;28;1269;-82
2021/11/01 00:45:41;;;;;;;;;;;;;;;;;;347066;28;926;-81
2021/11/01 00:45:51;;;;;;;;;;;;;;;;;;346928;28;988;-81
2021/11/01 00:46:02;;;;;;;;;;;;;;;;;;345532;28;1301;-80
2021/11/01 00:46:12;;;;;;;;;;;;;;;;;;346854;28;1230;-78
2021/11/01 00:46:38;;;;;;;;;;;;;;;;;;345723;28;953;-81
2021/11/01 00:46:48;;;;;;;;;;;;;;;;;;345759;28;850;-79
2021/11/01 00:46:59;;;;;;;;;;;;;;;;;;348399;28;1606;-80
2021/11/01 00:47:25;;;;;;;;;;;;;;;;;;348471;28;957;-79
2021/11/01 00:47:36;;;;;;;;;;;;;;;;;;348450;28;988;-82
2021/11/01 00:47:46;;;;;;;;;;;;;;;;;;346969;28;1302;-80
2021/11/01 00:47:57;;;;;;;;;;;;;;;;;;348417;28;901;-80
2021/11/01 00:48:07;;;;;;;;;;;;;;;;;;345616;28;1468;-81
2021/11/01 00:48:17;;;;;;;;;;;;;;;;;;345764;28;992;-80
2021/11/01 00:48:28;;;;;;;;;;;;;;;;;;345715;28;996;-82
2021/11/01 00:48:38;;;;;;;;;;;;;;;;;;345733;28;977;-80
2021/11/01 00:49:15;;;;;;;;;;;;;;;;;;345781;28;787;-81
2021/11/01 00:49:26;;;;;;;;;;;;;;;;;;344408;28;865;-82
2021/11/01 00:49:37;;;;;;;;;;;;;;;;;;344312;28;1323;-81
2021/11/01 00:49:48;;;;;;;;;;;;;;;;;;344262;28;1344;-82
2021/11/01 00:49:59;;;;;;;;;;;;;;;;;;344689;28;850;-80
2021/11/01 00:50:10;;;;;;;;;;;;;;;;;;346982;28;953;-81
2021/11/01 00:50:20;;;;;;;;;;;;;;;;;;347025;28;1069;-82
2021/11/01 00:50:32;;;;;;;;;;;;;;;;;;348523;28;977;-82
2021/11/01 00:51:24;;;;;;;;;;;;;;;;;;348507;28;897;-81
2021/11/01 00:51:38;;;;;;;;;;;;;;;;;;349918;28;861;-81
2021/11/01 00:52:19;;;;;;;;;;;;;;;;;;351304;28;932;-82
2021/11/01 00:52:30;;;;;;;;;;;;;;;;;;347264;28;1344;-82
2021/11/01 00:52:41;;;;;;;;;;;;;;;;;;348526;28;949;-81
2021/11/01 00:52:51;;;;;;;;;;;;;;;;;;348461;28;1212;-82
2021/11/01 00:53:17;;;;;;;;;;;;;;;;;;348506;28;1012;-82
2021/11/01 00:53:33;;;;;;;;;;;;;;;;;;348517;28;988;-81
2021/11/01 00:53:48;;;;;;;;;;;;;;;;;;348475;28;993;-83
2021/11/01 00:53:58;;;;;;;;;;;;;;;;;;345610;28;1536;-80
2021/11/01 00:54:09;;;;;;;;;;;;;;;;;;345751;28;1036;-82
2021/11/01 00:54:21;;;;;;;;;;;;;;;;;;345783;28;968;-81
2021/11/01 00:54:59;;;;;;;;;;;;;;;;;;345752;28;969;-81
2021/11/01 00:55:18;;;;;;;;;;;;;;;;;;344308;28;1243;-82
2021/11/01 00:55:37;;;;;;;;;;;;;;;;;;344340;28;1453;-79
2021/11/01 00:55:49;;;;;;;;;;;;;;;;;;344336;28;1165;-82
2021/11/01 00:56:00;;;;;;;;;;;;;;;;;;346971;28;969;-81
2021/11/01 00:56:26;;;;;;;;;;;;;;;;;;348348;28;1120;-81
2021/11/01 00:56:37;;;;;;;;;;;;;;;;;;347086;28;1557;-79
2021/11/01 00:56:47;;;;;;;;;;;;;;;;;;347073;28;1285;-77
2021/11/01 00:56:57;;;;;;;;;;;;;;;;;;347110;28;886;-79
2021/11/01 00:57:34;;;;;;;;;;;;;;;;;;345801;28;818;-83
2021/11/01 00:57:59;;;;;;;;;;;;;;;;;;346372;28;854;-81
2021/11/01 00:58:10;;;;;;;;;;;;;;;;;;346131;28;1028;-82
2021/11/01 00:58:21;;;;;;;;;;;;;;;;;;345777;28;799;-81
2021/11/01 00:58:33;;;;;;;;;;;;;;;;;;345787;28;929;-81
2021/11/01 00:58:44;;;;;;;;;;;;;;;;;;346319;28;1219;-80
2021/11/01 00:59:21;;;;;;;;;;;;;;;;;;348547;28;977;-81
2021/11/01 00:59:31;;;;;;;;;;;;;;;;;;348553;28;834;-82
2021/11/01 00:59:41;;;;;;;;;;;;;;;;;;348544;28;1106;-82
2021/11/01 00:59:52;;;;;;;;;;;;;;;;;;349910;28;917;-83
2021/11/01 01:00:12;;;;;;;;;;;;;;;;;;348430;28;1273;-82
2021/11/01 01:00:29;;;;;;;;;;;;;;;;;;348545;28;1032;-81
2021/11/01 01:00:39;;;;;;;;;;;;;;;;;;348466;28;885;-79
2021/11/01 01:00:50;;;;;;;;;;;;;;;;;;349088;28;881;-79
2021/11/01 01:01:01;;;;;;;;;;;;;;;;;;348316;28;1594;-80
2021/11/01 01:01:14;;;;;;;;;;;;;;;;;;348412;28;802;-80
2021/11/01 01:01:24;;;;;;;;;;;;;;;;;;346972;28;1502;-80
2021/11/01 01:01:35;;;;;;;;;;;;;;;;;;347180;28;921;-80
2021/11/01 01:02:00;;;;;;;;;;;;;;;;;;345540;28;956;-81
2021/11/01 01:02:11;;;;;;;;;;;;;;;;;;345745;28;1017;-81
2021/11/01 01:02:22;;;;;;;;;;;;;;;;;;345758;28;981;-79
2021/11/01 01:02:33;;;;;;;;;;;;;;;;;;345705;28;1972;-80
2021/11/01 01:02:46;;;;;;;;;;;;;;;;;;345706;28;981;-80
2021/11/01 01:03:23;;;;;;;;;;;;;;;;;;348082;28;981;-83
2021/11/01 01:03:34;;;;;;;;;;;;;;;;;;349458;28;992;-81
2021/11/01 01:03:44;;;;;;;;;;;;;;;;;;349561;28;932;-80
2021/11/01 01:03:55;;;;;;;;;;;;;;;;;;349831;28;928;-81
2021/11/01 01:04:38;;;;;;;;;;;;;;;;;;348500;28;993;-82
2021/11/01 01:04:48;;;;;;;;;;;;;;;;;;348518;28;874;-80
2021/11/01 01:04:59;;;;;;;;;;;;;;;;;;348208;28;998;-81
2021/11/01 01:05:09;;;;;;;;;;;;;;;;;;347070;28;1346;-80
2021/11/01 01:05:20;;;;;;;;;;;;;;;;;;347081;28;1551;-81
2021/11/01 01:05:31;;;;;;;;;;;;;;;;;;347030;28;1112;-81
2021/11/01 01:05:42;;;;;;;;;;;;;;;;;;346745;28;1041;-80
2021/11/01 01:06:45;;;;;;;;;;;;;;;;;;347107;28;980;-80
2021/11/01 01:07:21;;;;;;;;;;;;;;;;;;348544;28;817;-81
2021/11/01 01:07:32;;;;;;;;;;;;;;;;;;348549;28;1038;-82
2021/11/01 01:07:42;;;;;;;;;;;;;;;;;;348542;28;951;-81
2021/11/01 01:07:53;;;;;;;;;;;;;;;;;;348656;28;948;-82
2021/11/01 01:08:03;;;;;;;;;;;;;;;;;;348494;28;1020;-81
2021/11/01 01:08:15;;;;;;;;;;;;;;;;;;349689;28;1577;-79
2021/11/01 01:08:26;;;;;;;;;;;;;;;;;;349861;28;983;-83
2021/11/01 01:08:37;;;;;;;;;;;;;;;;;;349884;28;912;-83
2021/11/01 01:08:47;;;;;;;;;;;;;;;;;;347079;28;1226;-82
2021/11/01 01:08:58;;;;;;;;;;;;;;;;;;342889;28;1480;-82
2021/11/01 01:09:08;;;;;;;;;;;;;;;;;;343071;28;1009;-82
2021/11/01 01:09:18;;;;;;;;;;;;;;;;;;342824;28;926;-83
2021/11/01 01:09:29;;;;;;;;;;;;;;;;;;344315;28;1191;-81
2021/11/01 01:09:39;;;;;;;;;;;;;;;;;;344483;28;794;-80
2021/11/01 01:09:50;;;;;;;;;;;;;;;;;;344342;28;1194;-79
2021/11/01 01:10:00;;;;;;;;;;;;;;;;;;344394;28;826;-78
2021/11/01 01:10:11;;;;;;;;;;;;;;;;;;344377;28;981;-81
2021/11/01 01:10:37;;;;;;;;;;;;;;;;;;345669;28;1454;-83
2021/11/01 01:10:48;;;;;;;;;;;;;;;;;;344374;28;930;-79
2021/11/01 01:10:58;;;;;;;;;;;;;;;;;;344465;28;819;-80
2021/11/01 01:11:34;;;;;;;;;;;;;;;;;;345745;28;866;-80
2021/11/01 01:11:47;;;;;;;;;;;;;;;;;;347578;28;949;-82
2021/11/01 01:11:58;;;;;;;;;;;;;;;;;;348516;28;743;-82
2021/11/01 01:12:09;;;;;;;;;;;;;;;;;;346988;28;1197;-82
2021/11/01 01:12:20;;;;;;;;;;;;;;;;;;344691;28;1321;-81
2021/11/01 01:12:31;;;;;;;;;;;;;;;;;;344283;28;993;-82
2021/11/01 01:12:42;;;;;;;;;;;;;;;;;;344821;28;984;-82
2021/11/01 01:12:53;;;;;;;;;;;;;;;;;;347061;28;1352;-81
2021/11/01 01:13:04;;;;;;;;;;;;;;;;;;347137;28;763;-80
2021/11/01 01:13:35;;;;;;;;;;;;;;;;;;346998;28;960;-81
2021/11/01 01:13:46;;;;;;;;;;;;;;;;;;347105;28;1020;-80
2021/11/01 01:13:57;;;;;;;;;;;;;;;;;;347083;28;999;-80
2021/11/01 01:14:27;;;;;;;;;;;;;;;;;;349183;28;1011;-80
2021/11/01 01:14:47;;;;;;;;;;;;;;;;;;348335;28;1220;-82
2021/11/01 01:15:01;;;;;;;;;;;;;;;;;;347085;28;898;-80
2021/11/01 01:15:17;;;;;;;;;;;;;;;;;;347061;28;1295;-79
2021/11/01 01:16:31;;;;;;;;;;;;;;;;;;347009;28;1008;-82
2021/11/01 01:16:43;;;;;;;;;;;;;;;;;;348433;28;1424;-81
2021/11/01 01:16:54;;;;;;;;;;;;;;;;;;348779;28;1155;-80
2021/11/01 01:17:05;;;;;;;;;;;;;;;;;;349592;28;969;-81
2021/11/01 01:17:16;;;;;;;;;;;;;;;;;;348538;28;786;-82
2021/11/01 01:17:26;;;;;;;;;;;;;;;;;;346002;28;1559;-79
2021/11/01 01:17:37;;;;;;;;;;;;;;;;;;345796;28;862;-82
2021/11/01 01:17:48;;;;;;;;;;;;;;;;;;345789;28;849;-83
2021/11/01 01:18:19;;;;;;;;;;;;;;;;;;345718;28;791;-82
2021/11/01 01:18:33;;;;;;;;;;;;;;;;;;345738;28;965;-80
2021/11/01 01:18:44;;;;;;;;;;;;;;;;;;345702;28;992;-81
2021/11/01 01:18:57;;;;;;;;;;;;;;;;;;347083;28;814;-82
2021/11/01 01:19:15;;;;;;;;;;;;;;;;;;346973;28;1008;-81
2021/11/01 01:19:32;;;;;;;;;;;;;;;;;;348258;28;826;-81
2021/11/01 01:19:58;;;;;;;;;;;;;;;;;;348515;28;822;-81
2021/11/01 01:20:19;;;;;;;;;;;;;;;;;;348441;28;1012;-82
2021/11/01 01:20:30;;;;;;;;;;;;;;;;;;348542;28;816;-81
2021/11/01 01:20:41;;;;;;;;;;;;;;;;;;348425;28;1416;-81
2021/11/01 01:20:51;;;;;;;;;;;;;;;;;;347094;28;1584;-82
2021/11/01 01:22:10;;;;;;;;;;;;;;;;;;347006;28;1001;-81
2021/11/01 01:22:19;;;;;;;;;;;;;;;;;;347299;28;854;-80
2021/11/01 01:22:30;;;;;;;;;;;;;;;;;;348443;28;1540;-82
2021/11/01 01:22:41;;;;;;;;;;;;;;;;;;346016;28;1957;-81
2021/11/01 01:22:51;;;;;;;;;;;;;;;;;;345621;28;1016;-81
2021/11/01 01:23:02;;;;;;;;;;;;;;;;;;346989;28;1024;-82
2021/11/01 01:23:12;;;;;;;;;;;;;;;;;;347129;28;889;-80
2021/11/01 01:23:48;;;;;;;;;;;;;;;;;;346947;28;1398;-82
2021/11/01 01:24:00;;;;;;;;;;;;;;;;;;347121;28;853;-82
2021/11/01 01:24:10;;;;;;;;;;;;;;;;;;347107;28;881;-81
2021/11/01 01:24:21;;;;;;;;;;;;;;;;;;347143;28;904;-79
2021/11/01 01:24:31;;;;;;;;;;;;;;;;;;347085;28;933;-80
2021/11/01 01:24:51;;;;;;;;;;;;;;;;;;348507;28;1106;-80
2021/11/01 01:25:53;;;;;;;;;;;;;;;;;;349091;28;957;-82
2021/11/01 01:25:54;;;;;;;;;;;;;;;;;;349793;28;1007;-80
2021/11/01 01:26:04;;;;;;;;;;;;;;;;;;345693;28;1342;-81
2021/11/01 01:26:16;;;;;;;;;;;;;;;;;;345695;28;1023;-82
2021/11/01 01:26:26;;;;;;;;;;;;;;;;;;346897;28;1457;-79
2021/11/01 01:26:37;;;;;;;;;;;;;;;;;;346234;28;976;-79
2021/11/01 01:26:48;;;;;;;;;;;;;;;;;;346802;28;919;-82
2021/11/01 01:26:58;;;;;;;;;;;;;;;;;;347090;28;917;-83
2021/11/01 01:27:09;;;;;;;;;;;;;;;;;;345760;28;1111;-79
2021/11/01 01:27:20;;;;;;;;;;;;;;;;;;346932;28;985;-82
2021/11/01 01:27:31;;;;;;;;;;;;;;;;;;344385;28;1608;-81
2021/11/01 01:27:42;;;;;;;;;;;;;;;;;;344383;28;1000;-81
2021/11/01 01:28:19;;;;;;;;;;;;;;;;;;345648;28;1159;-77
2021/11/01 01:28:29;;;;;;;;;;;;;;;;;;345784;28;830;-81
2021/11/01 01:28:55;;;;;;;;;;;;;;;;;;345813;28;969;-80
2021/11/01 01:29:07;;;;;;;;;;;;;;;;;;347818;28;991;-82
2021/11/01 01:29:17;;;;;;;;;;;;;;;;;;348255;28;1361;-79
2021/11/01 01:29:27;;;;;;;;;;;;;;;;;;347679;28;965;-79
2021/11/01 01:29:44;;;;;;;;;;;;;;;;;;348486;28;1031;-78
2021/11/01 01:30:00;;;;;;;;;;;;;;;;;;348474;28;905;-79
2021/11/01 01:30:11;;;;;;;;;;;;;;;;;;345471;28;1183;-79
2021/11/01 01:30:24;;;;;;;;;;;;;;;;;;344296;28;1020;-78
2021/11/01 01:30:35;;;;;;;;;;;;;;;;;;344328;28;1410;-82
2021/11/01 01:30:56;;;;;;;;;;;;;;;;;;347011;28;1298;-82
2021/11/01 01:31:11;;;;;;;;;;;;;;;;;;348350;28;1329;-81
2021/11/01 01:31:22;;;;;;;;;;;;;;;;;;348381;28;965;-81
2021/11/01 01:31:45;;;;;;;;;;;;;;;;;;348382;28;787;-79
2021/11/01 01:32:06;;;;;;;;;;;;;;;;;;348328;28;1308;-82
2021/11/01 01:32:20;;;;;;;;;;;;;;;;;;349866;28;1000;-82
2021/11/01 01:32:31;;;;;;;;;;;;;;;;;;349033;28;1038;-79
2021/11/01 01:32:42;;;;;;;;;;;;;;;;;;347848;28;975;-80
2021/11/01 01:32:53;;;;;;;;;;;;;;;;;;347080;28;1135;-78
2021/11/01 01:33:03;;;;;;;;;;;;;;;;;;347177;28;996;-79
2021/11/01 01:33:13;;;;;;;;;;;;;;;;;;348472;28;1020;-80
2021/11/01 01:33:24;;;;;;;;;;;;;;;;;;347108;28;925;-79
2021/11/01 01:33:34;;;;;;;;;;;;;;;;;;347102;28;1075;-80
2021/11/01 01:33:44;;;;;;;;;;;;;;;;;;347116;28;810;-81
2021/11/01 01:33:55;;;;;;;;;;;;;;;;;;347528;28;802;-83
2021/11/01 01:34:05;;;;;;;;;;;;;;;;;;349883;28;841;-81
2021/11/01 01:34:16;;;;;;;;;;;;;;;;;;349867;28;1051;-79
2021/11/01 01:34:26;;;;;;;;;;;;;;;;;;348348;28;1466;-81
2021/11/01 01:34:37;;;;;;;;;;;;;;;;;;348510;28;968;-81
2021/11/01 01:34:53;;;;;;;;;;;;;;;;;;348351;28;783;-80
2021/11/01 01:35:04;;;;;;;;;;;;;;;;;;348433;28;889;-81
2021/11/01 01:35:14;;;;;;;;;;;;;;;;;;348416;28;960;-80
2021/11/01 01:35:25;;;;;;;;;;;;;;;;;;348455;28;932;-80
2021/11/01 01:35:40;;;;;;;;;;;;;;;;;;348511;28;996;-81
2021/11/01 01:35:50;;;;;;;;;;;;;;;;;;345827;28;1602;-79
2021/11/01 01:36:01;;;;;;;;;;;;;;;;;;345800;28;870;-80
2021/11/01 01:36:11;;;;;;;;;;;;;;;;;;345765;28;976;-79
2021/11/01 01:36:22;;;;;;;;;;;;;;;;;;345665;28;949;-81
2021/11/01 01:36:32;;;;;;;;;;;;;;;;;;345511;28;1168;-78
2021/11/01 01:36:43;;;;;;;;;;;;;;;;;;343057;28;1443;-79
2021/11/01 01:36:53;;;;;;;;;;;;;;;;;;345699;28;798;-80
2021/11/01 01:37:04;;;;;;;;;;;;;;;;;;346891;28;937;-79
2021/11/01 01:37:14;;;;;;;;;;;;;;;;;;347123;28;925;-81
2021/11/01 01:37:25;;;;;;;;;;;;;;;;;;347039;28;997;-81
2021/11/01 01:37:35;;;;;;;;;;;;;;;;;;345725;28;985;-81
2021/11/01 01:38:01;;;;;;;;;;;;;;;;;;345394;28;1169;-79
2021/11/01 01:38:12;;;;;;;;;;;;;;;;;;345711;28;993;-79
2021/11/01 01:38:22;;;;;;;;;;;;;;;;;;345740;28;985;-80
2021/11/01 01:38:33;;;;;;;;;;;;;;;;;;345728;28;1016;-81
2021/11/01 01:38:44;;;;;;;;;;;;;;;;;;343020;28;906;-79
2021/11/01 01:38:54;;;;;;;;;;;;;;;;;;343067;28;989;-80
2021/11/01 01:39:04;;;;;;;;;;;;;;;;;;344304;28;992;-80
2021/11/01 01:39:15;;;;;;;;;;;;;;;;;;344414;28;830;-82
2021/11/01 01:39:25;;;;;;;;;;;;;;;;;;344366;28;1132;-80
2021/11/01 01:39:35;;;;;;;;;;;;;;;;;;345744;28;921;-81
2021/11/01 01:39:46;;;;;;;;;;;;;;;;;;348286;28;862;-80
2021/11/01 01:39:56;;;;;;;;;;;;;;;;;;348514;28;806;-79
2021/11/01 01:40:08;;;;;;;;;;;;;;;;;;348502;28;1000;-79
2021/11/01 01:40:19;;;;;;;;;;;;;;;;;;346978;28;1167;-80
2021/11/01 01:40:30;;;;;;;;;;;;;;;;;;348309;28;1438;-80
2021/11/01 01:40:40;;;;;;;;;;;;;;;;;;348381;28;1382;-79
2021/11/01 01:40:53;;;;;;;;;;;;;;;;;;347017;28;1287;-80
2021/11/01 01:41:11;;;;;;;;;;;;;;;;;;347085;28;1117;-79
2021/11/01 01:41:26;;;;;;;;;;;;;;;;;;346906;28;960;-81
2021/11/01 01:41:42;;;;;;;;;;;;;;;;;;345603;28;1129;-77
2021/11/01 01:42:05;;;;;;;;;;;;;;;;;;346353;28;956;-82
2021/11/01 01:42:15;;;;;;;;;;;;;;;;;;347840;28;941;-81
2021/11/01 01:42:26;;;;;;;;;;;;;;;;;;348368;28;1255;-82
2021/11/01 01:42:36;;;;;;;;;;;;;;;;;;348427;28;1965;-81
2021/11/01 01:42:47;;;;;;;;;;;;;;;;;;347644;28;1177;-79
2021/11/01 01:43:39;;;;;;;;;;;;;;;;;;348454;28;988;-80
2021/11/01 01:43:52;;;;;;;;;;;;;;;;;;348477;28;834;-82
2021/11/01 01:44:03;;;;;;;;;;;;;;;;;;348437;28;893;-79
2021/11/01 01:44:14;;;;;;;;;;;;;;;;;;348465;28;865;-80
2021/11/01 01:44:24;;;;;;;;;;;;;;;;;;347520;28;818;-82
2021/11/01 01:44:37;;;;;;;;;;;;;;;;;;347131;28;846;-82
2021/11/01 01:44:47;;;;;;;;;;;;;;;;;;348372;28;956;-82
2021/11/01 01:44:57;;;;;;;;;;;;;;;;;;348589;28;799;-81
2021/11/01 01:45:09;;;;;;;;;;;;;;;;;;348472;28;802;-82
2021/11/01 01:45:26;;;;;;;;;;;;;;;;;;348594;28;822;-80
2021/11/01 01:45:36;;;;;;;;;;;;;;;;;;351248;28;786;-82
2021/11/01 01:45:47;;;;;;;;;;;;;;;;;;349660;28;1558;-81
2021/11/01 01:45:58;;;;;;;;;;;;;;;;;;348456;28;952;-82
2021/11/01 01:46:08;;;;;;;;;;;;;;;;;;348478;28;984;-80
2021/11/01 01:46:19;;;;;;;;;;;;;;;;;;348172;28;993;-82
2021/11/01 01:46:30;;;;;;;;;;;;;;;;;;348440;28;842;-80
2021/11/01 01:46:40;;;;;;;;;;;;;;;;;;348314;28;1036;-79
2021/11/01 01:46:51;;;;;;;;;;;;;;;;;;348217;28;1365;-81
2021/11/01 01:47:02;;;;;;;;;;;;;;;;;;346976;28;1217;-78
2021/11/01 01:47:12;;;;;;;;;;;;;;;;;;345623;28;1402;-79
2021/11/01 01:47:22;;;;;;;;;;;;;;;;;;344093;28;1156;-79
2021/11/01 01:47:33;;;;;;;;;;;;;;;;;;342987;28;1406;-80
2021/11/01 01:47:44;;;;;;;;;;;;;;;;;;346934;28;1176;-83
2021/11/01 01:47:55;;;;;;;;;;;;;;;;;;347077;28;803;-81
2021/11/01 01:48:13;;;;;;;;;;;;;;;;;;346991;28;861;-80
2021/11/01 01:48:23;;;;;;;;;;;;;;;;;;348352;28;1213;-79
2021/11/01 01:48:34;;;;;;;;;;;;;;;;;;348482;28;948;-81